Time;durP1;ratioP1;P1;durP2;ratioP2;P2;SDS_P1;SDS_P2;PMS_P1;PMS_P2;Temp;Humidity;BMP_temperature;BMP_pressure;BME280_temperature;BME280_humidity;BME280_pressure;Samples;Min_cycle;Max_cycle;Signal;HPM_P1;HPM_P2
2021/05/29 00:01:20;;;;;;;22.13;18.30;;;;;;;11.64;73.97;99208.86;125833;1104;64416;-92
2021/05/29 00:03:47;;;;;;;21.67;18.97;;;;;;;11.62;74.09;99212.59;125977;1104;64208;-92
2021/05/29 00:06:15;;;;;;;18.60;16.70;;;;;;;11.62;73.99;99208.10;125809;1097;64313;-91
2021/05/29 00:08:43;;;;;;;20.03;17.97;;;;;;;11.60;74.16;99211.84;125843;1104;64351;-92
2021/05/29 00:11:11;;;;;;;17.83;16.07;;;;;;;11.58;74.29;99206.59;125756;1104;64365;-92
2021/05/29 00:13:40;;;;;;;18.87;16.27;;;;;;;11.57;74.12;99206.70;125763;1104;63272;-92
2021/05/29 00:16:09;;;;;;;17.93;16.07;;;;;;;11.55;74.30;99195.27;125716;1104;64300;-92
2021/05/29 00:18:38;;;;;;;17.53;15.73;;;;;;;11.54;74.16;99197.09;125624;1104;64345;-92
2021/05/29 00:21:06;;;;;;;17.40;14.87;;;;;;;11.54;74.10;99191.75;125263;1096;64738;-92
2021/05/29 00:23:34;;;;;;;17.07;15.27;;;;;;;11.51;75.02;99205.31;125155;1097;64519;-92
2021/05/29 00:26:02;;;;;;;20.57;16.30;;;;;;;11.51;74.43;99199.98;125270;1104;64427;-92
2021/05/29 00:28:29;;;;;;;17.37;15.67;;;;;;;11.51;74.59;99197.30;125243;1105;64783;-92
2021/05/29 00:30:58;;;;;;;18.87;16.40;;;;;;;11.53;74.64;99205.19;125057;1096;64338;-93
2021/05/29 00:33:25;;;;;;;18.80;16.47;;;;;;;11.56;74.58;99199.67;125102;1104;64358;-92
2021/05/29 00:35:53;;;;;;;18.97;16.93;;;;;;;11.58;74.62;99203.06;126248;1097;64490;-92
2021/05/29 00:38:20;;;;;;;19.13;16.97;;;;;;;11.56;74.71;99195.19;125007;1104;64480;-94
2021/05/29 00:40:48;;;;;;;19.97;16.17;;;;;;;11.51;74.74;99197.30;125674;1096;64252;-93
2021/05/29 00:43:15;;;;;;;18.60;15.77;;;;;;;11.49;74.75;99199.22;126208;1104;64310;-93
2021/05/29 00:45:42;;;;;;;20.47;15.80;;;;;;;11.47;74.89;99198.45;125983;1104;64166;-93
2021/05/29 00:48:10;;;;;;;18.47;16.47;;;;;;;11.45;74.87;99194.18;125107;1104;64325;-92
2021/05/29 00:50:47;;;;;;;20.77;18.43;;;;;;;11.43;75.05;99184.48;125038;1104;64367;-93
2021/05/29 00:53:17;;;;;;;21.77;18.97;;;;;;;11.40;75.10;99181.14;124994;1096;64389;-93
2021/05/29 00:55:45;;;;;;;23.50;21.10;;;;;;;11.40;75.14;99187.36;125182;1104;64221;-93
2021/05/29 00:58:13;;;;;;;22.93;20.63;;;;;;;11.40;75.20;99190.02;124992;1104;64269;-92
2021/05/29 01:00:41;;;;;;;24.95;22.40;;;;;;;11.42;75.17;99192.58;125014;1104;64424;-92
2021/05/29 01:03:08;;;;;;;28.55;25.20;;;;;;;11.39;75.44;99182.95;125128;1104;64341;-92
2021/05/29 01:05:37;;;;;;;25.40;22.90;;;;;;;11.40;75.37;99189.14;125098;1104;64263;-92
2021/05/29 01:08:05;;;;;;;25.00;22.50;;;;;;;11.38;75.43;99185.75;125103;1096;64342;-93
2021/05/29 01:10:33;;;;;;;22.97;17.67;;;;;;;11.39;75.50;99192.78;125091;1097;64475;-93
2021/05/29 01:13:03;;;;;;;17.60;15.60;;;;;;;11.38;75.49;99196.42;125043;1097;64339;-93
2021/05/29 01:15:42;;;;;;;18.03;16.23;;;;;;;11.35;75.54;99199.30;125176;1104;64323;-92
2021/05/29 01:18:14;;;;;;;18.00;16.20;;;;;;;11.34;75.71;99209.09;124936;1104;64456;-93
2021/05/29 01:20:44;;;;;;;17.90;15.60;;;;;;;11.35;75.76;99201.97;125011;1104;64214;-93
2021/05/29 01:23:13;;;;;;;17.70;16.07;;;;;;;11.34;75.91;99201.09;125055;1104;64371;-93
2021/05/29 01:25:45;;;;;;;19.60;17.70;;;;;;;11.36;75.93;99203.67;124903;1104;64269;-93
2021/05/29 01:28:24;;;;;;;18.23;16.33;;;;;;;11.39;75.90;99193.63;125020;1104;64344;-94
2021/05/29 01:30:58;;;;;;;18.05;16.25;;;;;;;11.37;75.89;99195.58;125020;1097;64275;-93
2021/05/29 01:33:29;;;;;;;16.97;14.73;;;;;;;11.38;75.96;99194.60;124960;1096;64275;-93
2021/05/29 01:36:01;;;;;;;16.03;14.37;;;;;;;11.40;76.24;99195.36;124981;1104;64309;-93
2021/05/29 01:38:29;;;;;;;15.50;13.63;;;;;;;11.40;76.00;99191.81;125057;1104;64336;-93
2021/05/29 01:41:09;;;;;;;16.17;14.60;;;;;;;11.39;76.12;99193.63;124973;1096;64359;-93
2021/05/29 01:43:39;;;;;;;;;;;;;;;11.43;76.20;99191.63;125070;1104;64403;-92
2021/05/29 01:46:09;;;;;;;17.70;15.27;;;;;;;11.44;76.25;99190.66;125073;1104;64384;-93
2021/05/29 01:48:45;;;;;;;17.47;15.03;;;;;;;11.44;76.20;99182.66;125095;1097;64329;-92
2021/05/29 01:51:14;;;;;;;16.87;15.07;;;;;;;11.44;76.29;99190.66;125003;1097;64393;-93
2021/05/29 01:53:42;;;;;;;17.60;15.07;;;;;;;11.40;76.17;99184.69;125128;1097;64345;-93
2021/05/29 01:56:10;;;;;;;20.40;16.17;;;;;;;11.41;76.14;99190.88;125103;1097;64253;-93
2021/05/29 01:58:38;;;;;;;17.73;15.67;;;;;;;11.41;76.28;99185.54;125681;1104;64342;-93
2021/05/29 02:01:07;;;;;;;16.40;14.70;;;;;;;11.37;76.07;99184.91;125129;1104;64336;-93
2021/05/29 02:03:38;;;;;;;16.10;14.40;;;;;;;11.34;76.29;99182.41;125004;1096;64334;-92
2021/05/29 02:06:05;;;;;;;15.90;14.20;;;;;;;11.31;76.30;99184.44;125028;1097;64360;-93
2021/05/29 02:08:33;;;;;;;16.27;14.53;;;;;;;11.33;76.63;99186.05;125117;1096;64329;-92
2021/05/29 02:11:01;;;;;;;15.53;13.83;;;;;;;11.34;76.63;99189.56;125050;1104;64689;-93
2021/05/29 02:13:31;;;;;;;14.47;12.97;;;;;;;11.34;76.63;99184.23;125011;1104;64423;-93
2021/05/29 02:16:01;;;;;;;13.63;12.33;;;;;;;11.35;76.76;99178.80;124977;1104;64453;-92
2021/05/29 02:18:28;;;;;;;13.27;11.87;;;;;;;11.33;76.65;99175.38;124888;1097;64309;-93
2021/05/29 02:21:02;;;;;;;13.80;12.40;;;;;;;11.35;76.88;99170.80;125080;1097;64422;-92
2021/05/29 02:23:36;;;;;;;13.40;12.00;;;;;;;11.37;76.60;99178.68;125006;1097;64271;-92
2021/05/29 02:26:11;;;;;;;13.00;11.80;;;;;;;11.35;76.65;99176.14;125014;1104;64396;-93
2021/05/29 02:28:42;;;;;;;13.87;12.43;;;;;;;11.34;76.83;99173.55;124978;1097;64339;-91
2021/05/29 02:31:11;;;;;;;14.17;12.90;;;;;;;11.34;77.00;99173.55;125040;1104;64333;-93
2021/05/29 02:33:39;;;;;;;13.85;12.40;;;;;;;11.31;77.08;99176.44;125050;1104;64344;-93
2021/05/29 02:36:07;;;;;;;13.85;12.35;;;;;;;11.27;76.94;99174.92;125076;1097;64361;-93
2021/05/29 02:38:35;;;;;;;13.40;11.93;;;;;;;11.25;77.02;99179.53;124960;1097;64387;-93
2021/05/29 02:41:07;;;;;;;14.60;12.20;;;;;;;11.25;77.26;99175.04;125197;1097;64463;-93
2021/05/29 02:43:36;;;;;;;15.23;13.67;;;;;;;11.27;77.36;99175.80;124989;1104;64432;-92
2021/05/29 02:46:05;;;;;;;13.97;12.67;;;;;;;11.25;77.31;99185.71;125093;1104;64281;-93
2021/05/29 02:48:32;;;;;;;15.23;13.67;;;;;;;11.23;77.54;99184.10;124982;1104;64272;-92
2021/05/29 02:50:59;;;;;;;15.73;14.23;;;;;;;11.18;77.59;99190.58;125018;1096;64494;-92
2021/05/29 02:53:27;;;;;;;15.20;13.80;;;;;;;11.16;77.77;99180.97;124917;1104;64467;-93
2021/05/29 02:55:54;;;;;;;17.43;15.63;;;;;;;11.13;78.07;99183.84;124997;1097;64396;-93
2021/05/29 02:58:22;;;;;;;19.50;17.50;;;;;;;11.12;78.32;99187.48;124987;1104;64336;-93
2021/05/29 03:00:50;;;;;;;19.75;17.85;;;;;;;11.10;78.66;99186.72;125048;1104;64728;-93
2021/05/29 03:03:18;;;;;;;21.13;19.00;;;;;;;11.08;78.65;99186.81;125108;1104;64336;-92
2021/05/29 03:05:47;;;;;;;21.00;18.90;;;;;;;11.06;78.81;99187.86;125102;1104;64473;-92
2021/05/29 03:08:17;;;;;;;21.20;19.10;;;;;;;11.06;78.84;99188.75;125133;1104;64361;-92
2021/05/29 03:10:46;;;;;;;22.45;20.05;;;;;;;11.07;78.95;99184.27;125011;1104;64303;-92
2021/05/29 03:13:14;;;;;;;21.40;19.17;;;;;;;11.10;79.24;99186.72;125024;1097;64387;-92
2021/05/29 03:15:41;;;;;;;22.67;20.37;;;;;;;11.08;79.74;99186.81;125101;1104;64338;-92
2021/05/29 03:18:09;;;;;;;26.47;23.87;;;;;;;11.08;79.64;99186.81;125135;1104;64367;-92
2021/05/29 03:20:36;;;;;;;26.50;23.97;;;;;;;11.10;79.64;99192.06;125056;1104;64434;-92
2021/05/29 03:23:05;;;;;;;27.63;24.83;;;;;;;11.12;79.63;99184.81;125726;1104;64380;-93
2021/05/29 03:25:34;;;;;;;27.00;24.17;;;;;;;11.08;79.97;99188.63;125049;1097;64517;-93
2021/05/29 03:28:01;;;;;;;26.30;23.70;;;;;;;11.08;79.86;99188.63;125048;1097;64365;-92
2021/05/29 03:30:30;;;;;;;27.53;24.67;;;;;;;11.09;80.04;99187.69;125006;1104;64540;-92
2021/05/29 03:32:58;;;;;;;28.70;26.00;;;;;;;11.06;80.04;99193.20;125011;1104;64355;-92
2021/05/29 03:35:27;;;;;;;26.73;24.00;;;;;;;11.07;80.27;99200.27;125087;1097;64360;-93
2021/05/29 03:37:56;;;;;;;27.30;24.70;;;;;;;11.05;80.45;99199.50;125056;1104;64390;-93
2021/05/29 03:40:24;;;;;;;27.50;24.57;;;;;;;11.04;80.58;99198.66;125068;1097;64403;-92
2021/05/29 03:42:52;;;;;;;25.70;22.97;;;;;;;11.01;81.09;99203.34;125101;1104;64326;-92
2021/05/29 03:45:21;;;;;;;29.37;26.37;;;;;;;10.98;80.95;99199.06;125096;1097;64390;-91
2021/05/29 03:47:49;;;;;;;28.73;25.63;;;;;;;10.98;81.34;99199.91;124974;1104;64349;-92
2021/05/29 03:50:23;;;;;;;30.83;27.70;;;;;;;10.94;81.39;99203.72;124948;1096;64333;-92
2021/05/29 03:52:50;;;;;;;29.70;26.60;;;;;;;10.92;81.23;99196.78;124993;1097;64252;-91
2021/05/29 03:55:20;;;;;;;31.87;28.47;;;;;;;10.94;81.44;99202.88;124875;1104;64425;-91
2021/05/29 03:57:49;;;;;;;;;;;;;;;10.93;81.43;99196.69;125101;1104;64374;-91
2021/05/29 04:00:20;;;;;;;33.97;30.37;;;;;;;10.91;81.62;99198.59;124973;1104;64656;-92
2021/05/29 04:02:48;;;;;;;32.57;29.27;;;;;;;10.89;81.64;99199.65;125004;1097;64429;-93
2021/05/29 04:05:16;;;;;;;32.60;29.20;;;;;;;10.88;81.84;99206.80;124965;1104;64431;-91
2021/05/29 04:07:44;;;;;;;32.30;29.00;;;;;;;10.87;82.58;99210.41;125010;1104;64230;-91
2021/05/29 04:10:15;;;;;;;33.17;29.77;;;;;;;10.86;81.94;99208.70;124982;1104;64332;-91
2021/05/29 04:12:44;;;;;;;34.07;30.67;;;;;;;10.87;82.52;99212.22;125118;1104;64365;-92
2021/05/29 04:15:12;;;;;;;33.40;29.83;;;;;;;10.89;82.15;99216.50;125043;1097;64363;-91
2021/05/29 04:17:40;;;;;;;31.07;27.67;;;;;;;10.91;82.39;99216.41;125139;1096;64339;-92
2021/05/29 04:20:09;;;;;;;33.40;29.83;;;;;;;10.90;81.97;99225.34;124990;1096;64307;-92
2021/05/29 04:22:37;;;;;;;31.73;28.47;;;;;;;10.91;82.53;99222.59;125176;1096;64355;-91
2021/05/29 04:25:07;;;;;;;29.57;26.63;;;;;;;10.91;82.23;99224.41;124985;1097;64346;-92
2021/05/29 04:27:35;;;;;;;28.68;25.85;;;;;;;10.94;82.46;99222.39;125039;1104;64336;-91
2021/05/29 04:30:06;;;;;;;28.43;25.63;;;;;;;10.95;82.42;99225.91;125158;1104;64361;-92
2021/05/29 04:32:34;;;;;;;28.63;25.73;;;;;;;10.96;82.28;99231.16;125042;1097;64466;-92
2021/05/29 04:35:02;;;;;;;26.63;24.13;;;;;;;10.99;82.08;99225.62;125721;1097;64432;-92
2021/05/29 04:37:30;;;;;;;26.83;24.17;;;;;;;11.04;82.02;99235.99;126806;1097;64349;-89
2021/05/29 04:39:57;;;;;;;24.53;22.17;;;;;;;11.09;81.92;99227.70;126078;1104;64607;-90
2021/05/29 04:42:24;;;;;;;23.30;20.93;;;;;;;11.13;81.71;99231.86;125109;1096;64396;-91
2021/05/29 04:44:52;;;;;;;21.27;19.27;;;;;;;11.17;81.62;99234.23;125159;1104;64329;-91
2021/05/29 04:47:19;;;;;;;20.43;18.53;;;;;;;11.20;81.42;99231.36;125260;1104;64419;-92
2021/05/29 04:49:46;;;;;;;17.23;15.63;;;;;;;11.23;81.19;99240.13;124943;1097;64346;-92
2021/05/29 04:52:14;;;;;;;17.20;15.57;;;;;;;11.30;80.83;99230.77;124986;1097;64422;-91
2021/05/29 04:54:41;;;;;;;17.50;15.83;;;;;;;11.41;80.71;99238.91;125013;1104;64278;-91
2021/05/29 04:57:08;;;;;;;17.63;15.93;;;;;;;11.51;80.41;99240.01;125064;1104;64242;-91
2021/05/29 04:59:35;;;;;;;13.00;11.90;;;;;;;11.50;79.70;99238.28;124941;1104;64397;-91
2021/05/29 05:02:03;;;;;;;15.50;14.20;;;;;;;11.46;80.06;99238.61;124998;1104;64278;-90
2021/05/29 05:04:31;;;;;;;14.37;13.17;;;;;;;11.44;79.73;99238.70;125064;1097;64282;-89
2021/05/29 05:06:58;;;;;;;15.13;13.77;;;;;;;11.32;79.73;99242.17;125002;1097;64343;-91
2021/05/29 05:09:25;;;;;;;12.83;11.63;;;;;;;11.27;79.55;99245.16;125002;1104;64322;-90
2021/05/29 05:11:53;;;;;;;11.10;10.07;;;;;;;11.20;79.66;99246.52;124923;1104;64345;-89
2021/05/29 05:14:21;;;;;;;6.93;6.33;;;;;;;11.09;78.72;99257.04;124852;1096;64386;-90
2021/05/29 05:16:48;;;;;;;6.03;5.43;;;;;;;10.89;79.18;99256.48;124953;1104;64278;-90
2021/05/29 05:19:15;;;;;;;8.27;5.70;;;;;;;10.73;79.45;99261.95;124926;1104;64399;-90
2021/05/29 05:21:43;;;;;;;6.47;5.87;;;;;;;10.61;79.80;99262.73;124900;1104;64440;-91
2021/05/29 05:24:10;;;;;;;6.73;6.13;;;;;;;10.58;80.00;99268.23;125099;1097;64179;-91
2021/05/29 05:26:38;;;;;;;9.53;8.70;;;;;;;10.61;80.15;99269.85;125025;1104;64393;-91
2021/05/29 05:29:05;;;;;;;12.07;10.77;;;;;;;10.67;80.17;99270.34;124956;1097;64306;-91
2021/05/29 05:31:33;;;;;;;11.65;10.65;;;;;;;10.79;80.14;99279.36;124949;1104;64393;-91
2021/05/29 05:34:07;;;;;;;8.60;7.80;;;;;;;10.90;80.12;99271.55;124867;1104;64447;-91
2021/05/29 05:36:36;;;;;;;7.30;6.70;;;;;;;10.93;79.66;99287.36;125022;1097;64399;-91
2021/05/29 05:39:10;;;;;;;8.27;6.83;;;;;;;11.00;79.48;99279.80;124983;1104;64297;-92
2021/05/29 05:41:38;;;;;;;7.60;6.90;;;;;;;11.11;79.68;99282.66;125033;1104;64465;-92
2021/05/29 05:44:07;;;;;;;6.23;5.73;;;;;;;11.26;78.89;99270.11;125017;1104;64367;-93
2021/05/29 05:46:36;;;;;;;6.73;6.13;;;;;;;11.39;78.85;99280.84;125080;1097;64520;-92
2021/05/29 05:49:05;;;;;;;7.10;6.50;;;;;;;11.50;78.56;99282.80;125207;1104;64316;-94
2021/05/29 05:51:33;;;;;;;6.27;5.77;;;;;;;11.52;77.72;99275.56;125266;1104;64400;-93
2021/05/29 05:54:02;;;;;;;5.13;4.47;;;;;;;11.51;77.67;99277.38;125835;1104;63200;-93
2021/05/29 05:56:31;;;;;;;5.97;4.53;;;;;;;11.46;77.54;99278.64;125704;1104;64265;-95
2021/05/29 05:58:59;;;;;;;5.83;5.33;;;;;;;11.50;78.01;99277.47;125810;1104;64393;-95
2021/05/29 06:01:28;;;;;;;5.80;5.23;;;;;;;11.60;77.75;99283.91;125730;1097;64342;-94
2021/05/29 06:03:58;;;;;;;5.17;4.60;;;;;;;11.74;77.65;99282.98;125722;1097;64438;-94
2021/05/29 06:06:26;;;;;;;4.40;4.00;;;;;;;11.88;77.11;99272.27;125979;1104;64330;-93
2021/05/29 06:08:54;;;;;;;4.47;4.17;;;;;;;11.98;76.70;99281.38;125763;1104;64341;-95
2021/05/29 06:11:44;;;;;;;4.83;3.90;;;;;;;12.10;76.21;99276.14;126449;1097;64332;-94
2021/05/29 06:20:10;;;;;;;3.87;3.47;;;;;;;12.80;75.88;99283.72;125972;1104;64339;-95
2021/05/29 06:22:40;;;;;;;4.00;3.67;;;;;;;12.87;74.97;99279.62;125987;1104;64262;-95
2021/05/29 06:25:14;;;;;;;4.90;4.50;;;;;;;13.01;75.06;99281.33;126216;1096;64205;-93
2021/05/29 06:27:47;;;;;;;3.87;3.57;;;;;;;13.17;74.79;99277.41;126227;1104;64489;-94
2021/05/29 06:30:20;;;;;;;3.90;3.20;;;;;;;13.37;74.46;99275.11;126162;1104;64245;-93
2021/05/29 06:32:47;;;;;;;3.20;3.00;;;;;;;13.60;74.20;99273.41;126374;1104;63211;-93
2021/05/29 06:35:15;;;;;;;3.10;2.90;;;;;;;13.81;73.37;99273.61;126192;1097;64244;-93
2021/05/29 06:37:43;;;;;;;3.00;2.47;;;;;;;13.93;72.20;99277.16;126655;1104;64358;-93
2021/05/29 06:40:10;;;;;;;3.10;2.43;;;;;;;13.93;72.40;99278.05;126798;1104;63549;-94
2021/05/29 06:42:38;;;;;;;2.80;2.60;;;;;;;14.13;71.22;99281.02;126525;1096;63166;-92
2021/05/29 06:45:06;;;;;;;2.17;1.90;;;;;;;14.16;70.92;99291.49;126250;1096;64220;-94
2021/05/29 06:47:35;;;;;;;2.07;1.87;;;;;;;14.18;70.66;99290.41;127248;1104;64208;-93
2021/05/29 06:50:06;;;;;;;1.73;1.63;;;;;;;14.20;70.19;99284.94;126407;1097;64216;-94
2021/05/29 06:52:37;;;;;;;2.90;2.70;;;;;;;14.23;70.32;99292.73;127257;1104;61789;-91
2021/05/29 07:00:39;;;;;;;4.00;3.70;;;;;;;14.64;68.65;99285.98;128372;1104;62101;-93
2021/05/29 07:03:07;;;;;;;4.83;3.70;;;;;;;14.70;69.15;99278.31;128070;1104;61889;-90
2021/05/29 07:05:35;;;;;;;3.47;3.27;;;;;;;14.72;68.86;99278.20;128298;1104;62781;-92
2021/05/29 07:08:03;;;;;;;2.87;2.67;;;;;;;14.81;68.14;99280.14;127348;1104;62597;-93
2021/05/29 07:10:30;;;;;;;3.70;3.40;;;;;;;14.92;68.73;99276.59;125841;1104;64368;-93
2021/05/29 07:12:58;;;;;;;2.53;2.33;;;;;;;15.01;67.81;99288.41;125681;1096;64339;-93
2021/05/29 07:15:31;;;;;;;4.65;3.20;;;;;;;15.12;67.70;99280.36;125972;1104;64346;-92
2021/05/29 07:18:04;;;;;;;2.40;2.20;;;;;;;15.15;66.85;99280.95;125458;1097;64432;-93
2021/05/29 07:20:32;;;;;;;2.67;2.47;;;;;;;15.30;67.13;99288.75;125386;1104;64438;-93
2021/05/29 07:23:01;;;;;;;2.63;2.43;;;;;;;15.48;66.57;99281.88;125195;1096;64310;-94
2021/05/29 07:25:29;;;;;;;2.33;2.13;;;;;;;15.57;66.46;99277.56;125181;1097;64236;-92
2021/05/29 07:27:56;;;;;;;2.90;2.10;;;;;;;15.67;66.11;99277.66;125235;1104;64264;-92
2021/05/29 07:30:24;;;;;;;2.17;1.97;;;;;;;15.73;65.22;99275.33;125172;1096;64355;-93
2021/05/29 07:32:52;;;;;;;2.50;2.30;;;;;;;15.65;64.98;99279.61;125587;1104;64431;-93
2021/05/29 07:35:21;;;;;;;2.35;2.15;;;;;;;15.61;64.66;99273.63;126014;1097;64393;-92
2021/05/29 07:37:49;;;;;;;2.53;2.33;;;;;;;15.57;65.27;99264.13;127132;1104;63797;-93
2021/05/29 07:40:17;;;;;;;2.40;2.20;;;;;;;15.77;64.45;99275.91;125944;1104;64350;-93
2021/05/29 07:42:44;;;;;;;3.07;2.83;;;;;;;15.85;64.10;99280.64;125767;1097;64261;-93
2021/05/29 07:45:13;;;;;;;3.47;2.50;;;;;;;15.93;64.64;99280.84;125817;1104;64339;-92
2021/05/29 07:47:40;;;;;;;2.97;2.60;;;;;;;15.99;64.80;99274.97;125961;1104;64342;-92
2021/05/29 07:50:09;;;;;;;3.37;3.00;;;;;;;16.14;64.55;99279.05;125985;1104;64214;-92
2021/05/29 07:52:40;;;;;;;4.00;3.70;;;;;;;16.23;63.98;99275.55;126076;1104;64566;-92
2021/05/29 07:55:08;;;;;;;3.77;3.37;;;;;;;16.14;63.78;99289.80;125410;1104;64309;-92
2021/05/29 07:57:36;;;;;;;3.70;2.80;;;;;;;16.10;63.47;99276.74;125145;1104;64355;-92
2021/05/29 08:00:09;;;;;;;3.93;3.13;;;;;;;16.15;63.31;99275.36;125482;1097;63144;-92
2021/05/29 08:02:38;;;;;;;3.60;3.10;;;;;;;16.21;62.98;99274.83;125339;1104;64358;-92
2021/05/29 08:05:12;;;;;;;4.10;3.70;;;;;;;16.32;62.84;99278.43;125488;1104;64397;-92
2021/05/29 08:07:40;;;;;;;4.60;4.20;;;;;;;16.42;62.71;99271.27;125447;1104;64323;-91
2021/05/29 08:10:08;;;;;;;5.00;4.57;;;;;;;16.59;62.77;99272.52;125419;1104;64368;-92
2021/05/29 08:12:36;;;;;;;4.20;3.80;;;;;;;16.71;62.37;99267.88;125615;1104;64365;-93
2021/05/29 08:15:06;;;;;;;4.90;4.50;;;;;;;16.82;62.42;99267.80;125573;1104;64208;-92
2021/05/29 08:17:33;;;;;;;5.13;3.93;;;;;;;16.92;62.20;99262.47;125719;1104;64435;-92
2021/05/29 08:20:01;;;;;;;4.63;4.30;;;;;;;17.01;61.73;99273.28;125685;1097;64907;-92
2021/05/29 08:22:28;;;;;;;4.97;4.57;;;;;;;17.21;61.36;99268.78;125936;1104;64335;-93
2021/05/29 08:24:56;;;;;;;5.25;4.80;;;;;;;17.32;60.90;99257.03;126028;1104;64282;-93
2021/05/29 08:27:23;;;;;;;4.97;4.57;;;;;;;17.38;60.76;99259.19;126498;1104;64651;-92
2021/05/29 08:29:51;;;;;;;4.17;3.87;;;;;;;17.50;60.48;99255.36;127375;1097;63313;-92
2021/05/29 08:32:18;;;;;;;5.90;5.33;;;;;;;17.60;60.67;99260.77;127066;1104;64205;-92
2021/05/29 08:34:45;;;;;;;6.57;4.40;;;;;;;17.73;60.27;99263.19;125942;1097;64419;-93
2021/05/29 08:37:13;;;;;;;6.20;4.73;;;;;;;17.63;58.91;99262.33;125824;1097;64288;-93
2021/05/29 08:39:40;;;;;;;4.27;3.87;;;;;;;17.30;58.65;99256.34;125779;1104;64329;-93
2021/05/29 08:42:09;;;;;;;4.85;4.00;;;;;;;17.16;59.30;99254.88;125646;1104;64284;-93
2021/05/29 08:44:36;;;;;;;4.63;4.17;;;;;;;17.13;59.76;99257.84;125634;1104;64454;-92
2021/05/29 08:47:04;;;;;;;4.53;4.13;;;;;;;17.15;58.98;99253.19;125787;1097;64428;-92
2021/05/29 08:49:32;;;;;;;4.23;3.77;;;;;;;17.09;58.86;99261.83;125617;1104;64310;-92
2021/05/29 08:52:02;;;;;;;4.87;4.37;;;;;;;17.19;58.87;99261.83;125618;1104;64323;-92
2021/05/29 08:54:31;;;;;;;4.77;4.23;;;;;;;17.43;58.83;99259.63;125803;1097;64331;-91
2021/05/29 08:56:59;;;;;;;4.40;4.07;;;;;;;17.66;58.23;99254.80;125864;1097;64272;-92
2021/05/29 08:59:26;;;;;;;5.17;4.40;;;;;;;17.72;58.18;99261.46;125552;1097;64283;-92
2021/05/29 09:01:54;;;;;;;4.50;4.10;;;;;;;17.58;58.21;99264.59;125479;1096;64339;-92
2021/05/29 09:04:22;;;;;;;6.30;5.70;;;;;;;17.36;58.26;99254.94;125785;1096;64367;-92
2021/05/29 09:06:50;;;;;;;6.67;6.13;;;;;;;17.30;58.89;99259.04;125298;1104;64409;-92
2021/05/29 09:09:19;;;;;;;8.37;7.30;;;;;;;17.25;58.43;99254.06;125176;1104;64386;-93
2021/05/29 09:11:50;;;;;;;8.77;8.07;;;;;;;17.13;58.51;99259.70;125069;1104;64329;-92
2021/05/29 09:14:32;;;;;;;7.77;7.07;;;;;;;17.09;59.29;99257.28;125036;1105;64275;-92
2021/05/29 09:17:27;;;;;;;8.20;7.60;;;;;;;17.15;59.53;99263.11;125072;1097;64438;-93
2021/05/29 09:19:57;;;;;;;6.80;6.20;;;;;;;17.51;58.72;99256.23;125110;1104;64472;-93
2021/05/29 09:22:40;;;;;;;7.00;6.30;;;;;;;17.95;58.55;99260.21;125101;1104;64369;-92
2021/05/29 09:25:17;;;;;;;5.73;5.30;;;;;;;18.10;57.06;99257.09;125109;1104;64245;-92
2021/05/29 09:28:00;;;;;;;5.03;4.63;;;;;;;18.11;57.54;99247.99;125183;1097;64364;-91
2021/05/29 09:30:50;;;;;;;4.70;4.40;;;;;;;18.23;57.36;99252.23;125140;1097;64374;-91
2021/05/29 09:33:24;;;;;;;4.90;4.50;;;;;;;18.38;56.08;99247.24;125127;1097;64493;-92
2021/05/29 09:36:06;;;;;;;4.20;3.80;;;;;;;18.28;54.19;99251.81;125217;1104;64460;-92
2021/05/29 09:38:43;;;;;;;4.10;3.80;;;;;;;17.90;54.14;99243.61;125153;1097;64424;-93
2021/05/29 09:41:27;;;;;;;4.70;4.40;;;;;;;17.75;54.97;99253.12;125235;1096;64664;-93
2021/05/29 09:43:58;;;;;;;5.30;4.80;;;;;;;17.61;55.17;99248.98;125233;1104;64432;-92
2021/05/29 09:46:27;;;;;;;4.47;4.07;;;;;;;17.52;54.49;99245.30;125650;1104;64332;-93
2021/05/29 09:48:58;;;;;;;5.20;3.90;;;;;;;17.38;53.64;99245.72;125236;1094;64284;-93
2021/05/29 09:51:31;;;;;;;4.07;3.77;;;;;;;17.20;54.41;99247.39;125311;1104;64457;-93
2021/05/29 09:54:08;;;;;;;3.80;3.50;;;;;;;17.20;54.36;99250.93;124999;1104;64253;-92
2021/05/29 09:56:41;;;;;;;4.13;3.40;;;;;;;17.20;53.75;99248.23;125120;1104;64400;-92
2021/05/29 09:59:10;;;;;;;4.00;3.03;;;;;;;17.21;53.36;99251.78;124965;1104;64471;-92
2021/05/29 10:01:49;;;;;;;2.00;1.80;;;;;;;17.19;50.79;99261.83;125013;1104;64419;-91
2021/05/29 10:07:06;;;;;;;3.20;2.30;;;;;;;17.04;51.18;99250.61;125210;1097;64337;-91
2021/05/29 10:09:34;;;;;;;2.60;2.40;;;;;;;17.18;51.53;99260.98;125291;1097;64255;-92
2021/05/29 10:12:04;;;;;;;2.97;2.60;;;;;;;17.23;50.99;99250.65;125299;1104;64374;-91
2021/05/29 10:14:33;;;;;;;3.33;3.03;;;;;;;17.02;49.34;99245.35;125260;1097;64604;-92
2021/05/29 10:17:07;;;;;;;3.47;2.87;;;;;;;16.78;50.22;99245.70;125093;1104;64315;-93
2021/05/29 10:19:37;;;;;;;3.60;3.30;;;;;;;16.68;50.03;99248.31;125244;1096;64341;-93
2021/05/29 10:22:10;;;;;;;3.40;3.20;;;;;;;16.73;50.55;99252.45;125062;1104;64344;-92
2021/05/29 10:24:39;;;;;;;5.47;3.97;;;;;;;16.60;49.92;99249.98;125162;1104;64497;-93
2021/05/29 10:27:10;;;;;;;4.13;3.73;;;;;;;16.43;50.28;99246.94;125266;1104;64392;-92
2021/05/29 10:29:38;;;;;;;3.67;3.37;;;;;;;16.28;51.40;99248.27;125078;1097;64377;-92
2021/05/29 10:32:17;;;;;;;3.50;3.20;;;;;;;16.14;52.21;99249.47;125136;1096;64339;-93
2021/05/29 10:35:09;;;;;;;3.10;2.85;;;;;;;16.07;52.49;99252.81;125217;1097;64355;-92
2021/05/29 10:37:55;;;;;;;2.45;2.10;;;;;;;15.86;52.29;99244.73;125289;1104;64795;-93
2021/05/29 10:40:30;;;;;;;2.07;1.97;;;;;;;15.79;53.36;99257.83;125406;1104;64490;-93
2021/05/29 10:43:08;;;;;;;1.60;1.50;;;;;;;15.82;52.97;99254.88;125345;1104;64336;-93
2021/05/29 10:45:57;;;;;;;1.80;1.70;;;;;;;15.91;53.23;99258.64;125433;1096;64303;-92
2021/05/29 10:48:26;;;;;;;1.75;1.35;;;;;;;16.04;52.47;99256.61;125414;1104;64443;-90
2021/05/29 10:51:10;;;;;;;1.20;1.10;;;;;;;16.14;52.58;99260.22;125311;1104;64282;-90
2021/05/29 10:53:49;;;;;;;1.90;1.70;;;;;;;16.29;52.47;99251.80;125112;1097;64378;-90
2021/05/29 10:56:16;;;;;;;1.73;1.63;;;;;;;16.46;52.72;99237.75;125084;1096;64287;-90
2021/05/29 10:59:17;;;;;;;2.73;2.40;;;;;;;16.77;53.30;99243.11;125023;1104;64342;-91
2021/05/29 11:01:45;;;;;;;3.27;2.30;;;;;;;16.77;52.81;99245.80;125144;1097;64284;-90
2021/05/29 11:04:19;;;;;;;2.70;2.37;;;;;;;16.84;53.08;99244.30;124998;1104;64792;-90
2021/05/29 11:06:52;;;;;;;2.90;2.60;;;;;;;16.83;53.30;99250.69;124964;1097;64281;-91
2021/05/29 11:09:26;;;;;;;2.77;2.50;;;;;;;16.86;53.30;99255.80;125033;1097;64336;-90
2021/05/29 11:11:55;;;;;;;3.63;2.53;;;;;;;16.93;53.33;99253.39;125073;1097;64348;-91
2021/05/29 11:14:24;;;;;;;3.78;3.20;;;;;;;16.99;52.10;99256.41;125123;1097;64359;-91
2021/05/29 11:16:52;;;;;;;6.57;3.03;;;;;;;17.10;53.51;99258.98;124944;1097;64396;-92
2021/05/29 11:19:31;;;;;;;3.00;2.70;;;;;;;17.50;53.17;99252.66;124972;1104;64323;-92
2021/05/29 11:22:08;;;;;;;4.07;2.63;;;;;;;17.74;52.71;99254.94;125126;1097;64333;-92
2021/05/29 11:24:52;;;;;;;5.00;3.60;;;;;;;17.86;52.20;99263.78;124959;1097;64329;-91
2021/05/29 11:27:21;;;;;;;4.67;3.60;;;;;;;17.81;52.84;99257.96;125021;1097;64214;-90
2021/05/29 11:29:49;;;;;;;4.13;2.83;;;;;;;17.57;52.35;99254.81;125063;1104;64322;-90
2021/05/29 11:32:40;;;;;;;2.83;2.30;;;;;;;17.31;52.04;99247.27;125227;1104;64332;-86
2021/05/29 11:35:08;;;;;;;2.37;1.93;;;;;;;17.18;52.31;99242.13;125323;1097;64351;-91
2021/05/29 11:37:35;;;;;;;1.73;1.63;;;;;;;17.23;52.06;99244.41;125260;1104;64405;-90
2021/05/29 11:40:03;;;;;;;2.23;1.90;;;;;;;17.31;52.13;99229.25;125166;1097;64432;-91
2021/05/29 11:42:48;;;;;;;1.70;1.60;;;;;;;17.56;51.47;99232.38;125303;1105;64488;-91
2021/05/29 11:45:20;;;;;;;1.70;1.60;;;;;;;17.85;51.87;99227.04;125580;1097;64483;-90
2021/05/29 11:47:53;;;;;;;1.83;1.40;;;;;;;18.21;51.24;99222.69;125067;1097;64388;-91